createdAt,value
2022-08-08T00:07:50.090Z,19.20
2022-08-08T00:18:05.306Z,19.10
2022-08-08T00:28:34.005Z,19.00
2022-08-08T00:38:54.589Z,19.00
2022-08-08T00:49:27.281Z,18.60
2022-08-08T00:59:58.007Z,18.50
2022-08-08T01:10:40.343Z,18.30
2022-08-08T01:21:15.831Z,17.90
2022-08-08T01:32:17.697Z,18.10
2022-08-08T01:42:36.561Z,17.80
2022-08-08T01:54:57.577Z,17.80
2022-08-08T02:03:54.508Z,17.50
2022-08-08T02:14:25.966Z,17.60
2022-08-08T02:24:32.166Z,17.60
2022-08-08T02:35:07.988Z,17.40
2022-08-08T02:45:54.391Z,17.50
2022-08-08T02:56:18.184Z,17.50
2022-08-08T03:06:37.767Z,17.10
2022-08-08T03:17:01.447Z,16.90
2022-08-08T03:27:44.293Z,17.10
2022-08-08T03:38:54.276Z,16.80
2022-08-08T03:48:21.044Z,16.40
2022-08-08T03:58:38.093Z,16.40
2022-08-08T04:08:48.199Z,16.30
2022-08-08T04:18:55.355Z,16.30
2022-08-08T04:28:58.512Z,16.10
2022-08-08T04:39:47.972Z,16.10
2022-08-08T04:49:28.859Z,16.00
2022-08-08T04:59:48.114Z,16.00
2022-08-08T05:09:49.853Z,16.00
2022-08-08T05:20:10.603Z,16.20
2022-08-08T05:30:16.596Z,16.20
2022-08-08T05:40:32.754Z,16.40
2022-08-08T05:50:39.272Z,16.60
2022-08-08T06:00:44.483Z,16.70
2022-08-08T06:11:00.733Z,17.00
2022-08-08T06:21:27.852Z,17.10
2022-08-08T06:31:52.803Z,16.90
2022-08-08T06:42:03.698Z,17.50
2022-08-08T06:52:18.255Z,17.70
2022-08-08T07:02:29.517Z,18.10
2022-08-08T07:12:48.266Z,18.50
2022-08-08T07:23:01.756Z,19.20
2022-08-08T07:33:04.759Z,20.60
2022-08-08T07:43:10.067Z,22.00
2022-08-08T07:54:02.367Z,22.80
2022-08-08T08:04:06.756Z,23.70
2022-08-08T08:14:31.172Z,24.40
2022-08-08T08:24:35.135Z,25.00
2022-08-08T08:34:43.114Z,25.40
2022-08-08T08:44:47.992Z,26.00
2022-08-08T08:54:55.693Z,26.50
2022-08-08T09:05:05.120Z,27.10
2022-08-08T09:15:09.137Z,27.60
2022-08-08T09:25:18.021Z,28.10
2022-08-08T09:35:37.336Z,28.40
2022-08-08T09:46:06.431Z,29.20
2022-08-08T09:56:24.819Z,29.70
2022-08-08T10:06:29.666Z,29.90
2022-08-08T10:16:44.660Z,30.20
2022-08-08T10:26:59.852Z,30.20
2022-08-08T10:37:04.706Z,31.20
2022-08-08T10:47:15.441Z,31.30
2022-08-08T10:57:33.348Z,31.50
2022-08-08T11:08:37.905Z,31.60
2022-08-08T11:18:31.580Z,31.60
2022-08-08T11:28:38.627Z,32.30
2022-08-08T11:38:53.741Z,32.40
2022-08-08T11:48:59.178Z,33.00
2022-08-08T11:59:13.198Z,33.00
2022-08-08T12:09:17.178Z,33.20
2022-08-08T12:19:37.381Z,33.50
2022-08-08T12:29:57.680Z,33.40
2022-08-08T12:40:23.936Z,33.50
2022-08-08T12:50:26.931Z,33.70
2022-08-08T13:00:33.957Z,33.90
2022-08-08T13:10:56.960Z,33.70
2022-08-08T13:21:02.594Z,34.10
2022-08-08T13:31:10.819Z,34.40
2022-08-08T13:41:16.989Z,34.40
2022-08-08T13:51:33.917Z,33.50
2022-08-08T14:01:52.604Z,34.00
2022-08-08T14:12:02.276Z,34.00
2022-08-08T14:22:06.895Z,34.10
2022-08-08T14:32:17.851Z,34.10
2022-08-08T14:42:55.043Z,34.10
2022-08-08T14:53:01.562Z,33.80
2022-08-08T15:03:14.561Z,33.80
2022-08-08T15:13:20.676Z,33.50
2022-08-08T15:23:22.951Z,33.50
2022-08-08T15:33:38.750Z,33.60
2022-08-08T15:44:00.508Z,33.30
2022-08-08T15:54:06.233Z,33.30
2022-08-08T16:04:22.096Z,33.10
2022-08-08T16:14:34.955Z,32.60
2022-08-08T16:24:36.812Z,32.10
2022-08-08T16:34:40.116Z,32.00
2022-08-08T16:44:41.998Z,31.90
2022-08-08T16:55:34.070Z,31.60
2022-08-08T17:05:19.557Z,31.10
2022-08-08T17:15:23.141Z,30.40
2022-08-08T17:25:41.692Z,29.80
2022-08-08T17:36:09.274Z,29.30
2022-08-08T17:46:40.989Z,28.80
2022-08-08T17:56:43.895Z,28.50
2022-08-08T18:06:48.916Z,28.10
2022-08-08T18:16:52.701Z,27.80
2022-08-08T18:27:00.658Z,27.40
2022-08-08T18:37:10.077Z,27.00
2022-08-08T18:47:19.857Z,26.60
2022-08-08T18:57:21.697Z,26.20
2022-08-08T19:07:29.605Z,25.80
2022-08-08T19:17:47.897Z,25.30
2022-08-08T19:28:01.237Z,24.80
2022-08-08T19:38:03.917Z,24.40
2022-08-08T19:48:06.194Z,24.00
2022-08-08T19:58:29.353Z,23.70
2022-08-08T20:08:33.037Z,23.50
2022-08-08T20:19:13.577Z,23.40
2022-08-08T20:29:15.414Z,23.10
2022-08-08T20:39:17.630Z,22.90
2022-08-08T20:49:21.939Z,22.70
2022-08-08T20:59:24.821Z,22.60
2022-08-08T21:09:31.571Z,22.40
2022-08-08T21:19:49.660Z,22.30
2022-08-08T21:30:05.523Z,22.30
2022-08-08T21:40:15.051Z,22.20
2022-08-08T21:50:24.338Z,22.30
2022-08-08T22:00:26.392Z,22.20
2022-08-08T22:10:32.543Z,22.10
2022-08-08T22:20:35.440Z,22.00
2022-08-08T22:30:42.387Z,21.90
2022-08-08T22:40:44.801Z,21.70
2022-08-08T22:50:48.898Z,21.50
2022-08-08T23:00:54.779Z,21.30
2022-08-08T23:11:06.035Z,21.10
2022-08-08T23:21:17.157Z,20.90
2022-08-08T23:31:22.635Z,20.80
2022-08-08T23:41:25.402Z,20.60
2022-08-08T23:51:41.802Z,20.50
